Time;durP1;ratioP1;P1;durP2;ratioP2;P2;SDS_P1;SDS_P2;PMS_P1;PMS_P2;Temp;Humidity;BMP_temperature;BMP_pressure;BME280_temperature;BME280_humidity;BME280_pressure;Samples;Min_cycle;Max_cycle;Signal;HPM_P1;HPM_P2
2023/03/24 00:00:12;;;;;;;8.48;3.67;;;11.20;99.90;;;;;;5041090;28;20036;-70
2023/03/24 00:02:40;;;;;;;5.85;3.38;;;11.10;99.90;;;;;;5057999;28;20040;-69
2023/03/24 00:05:09;;;;;;;7.72;4.18;;;11.10;99.90;;;;;;5027220;28;20040;-69
2023/03/24 00:07:37;;;;;;;7.43;3.33;;;11.10;99.90;;;;;;5042144;28;20496;-70
2023/03/24 00:10:05;;;;;;;9.55;3.70;;;11.10;99.90;;;;;;5042250;28;20049;-69
2023/03/24 00:12:32;;;;;;;9.13;3.58;;;11.10;99.90;;;;;;5046308;28;20045;-70
2023/03/24 00:15:01;;;;;;;8.88;3.72;;;11.10;99.90;;;;;;5043719;28;20404;-69
2023/03/24 00:17:28;;;;;;;8.38;3.80;;;11.10;99.90;;;;;;5031588;28;20148;-69
2023/03/24 00:19:55;;;;;;;8.45;4.38;;;11.10;99.90;;;;;;5047189;28;20076;-70
2023/03/24 00:22:21;;;;;;;6.18;3.35;;;11.00;99.90;;;;;;5045545;28;20399;-69
2023/03/24 00:24:46;;;;;;;8.50;3.42;;;11.00;99.90;;;;;;5048123;28;20037;-70
2023/03/24 00:27:14;;;;;;;8.18;3.85;;;11.00;99.90;;;;;;5046339;28;20040;-69
2023/03/24 00:29:40;;;;;;;7.35;3.28;;;11.00;99.90;;;;;;5049081;28;20137;-69
2023/03/24 00:32:07;;;;;;;6.95;3.92;;;11.00;99.90;;;;;;5046677;28;20093;-69
2023/03/24 00:34:37;;;;;;;8.20;3.58;;;11.00;99.90;;;;;;5047352;28;20045;-69
2023/03/24 00:37:03;;;;;;;8.40;3.72;;;11.00;99.90;;;;;;5038007;28;20049;-69
2023/03/24 00:39:29;;;;;;;6.15;3.35;;;11.00;99.90;;;;;;5044896;28;20037;-69
2023/03/24 00:41:57;;;;;;;5.60;2.92;;;11.00;99.90;;;;;;5041851;28;20110;-69
2023/03/24 00:44:23;;;;;;;4.28;3.20;;;11.00;99.90;;;;;;5047061;28;20711;-69
2023/03/24 00:46:54;;;;;;;5.93;3.05;;;11.00;99.90;;;;;;5036477;28;20048;-69
2023/03/24 00:49:47;;;;;;;4.75;3.40;;;11.00;99.90;;;;;;5073685;28;20384;-70
2023/03/24 00:52:19;;;;;;;7.30;2.90;;;11.00;99.90;;;;;;5071214;28;20036;-69
2023/03/24 00:54:50;;;;;;;7.63;2.88;;;11.10;99.90;;;;;;5071085;28;20407;-69
2023/03/24 00:57:24;;;;;;;6.00;3.00;;;11.10;99.90;;;;;;5044259;28;20053;-69
2023/03/24 00:59:53;;;;;;;9.63;3.40;;;11.10;99.90;;;;;;5046211;28;20067;-69
2023/03/24 01:02:23;;;;;;;6.30;3.60;;;11.10;99.90;;;;;;5055602;28;20061;-69
2023/03/24 01:04:56;;;;;;;6.93;3.15;;;11.10;99.90;;;;;;5045139;28;20045;-69
2023/03/24 01:07:24;;;;;;;4.78;2.78;;;11.10;99.90;;;;;;5067965;28;20133;-69
2023/03/24 01:09:56;;;;;;;5.93;3.20;;;11.10;99.90;;;;;;5043285;28;20053;-69
2023/03/24 01:12:35;;;;;;;7.97;3.10;;;11.10;99.90;;;;;;5039107;28;20127;-70
2023/03/24 01:15:07;;;;;;;7.80;2.58;;;11.10;99.90;;;;;;5044490;28;20459;-69
2023/03/24 01:17:33;;;;;;;5.80;2.88;;;11.10;99.90;;;;;;5047054;28;20659;-70
2023/03/24 01:19:59;;;;;;;4.75;2.60;;;11.20;99.90;;;;;;5041880;28;20110;-69
2023/03/24 01:22:29;;;;;;;5.05;2.97;;;11.10;99.90;;;;;;5042224;28;20056;-69
2023/03/24 01:24:55;;;;;;;5.70;2.65;;;11.20;99.90;;;;;;5047406;28;20061;-69
2023/03/24 01:27:21;;;;;;;5.72;2.78;;;11.10;99.90;;;;;;5044137;28;20079;-69
2023/03/24 01:29:46;;;;;;;5.70;2.80;;;11.10;99.90;;;;;;5040280;28;20049;-70
2023/03/24 01:32:12;;;;;;;6.40;3.00;;;11.20;99.90;;;;;;5042642;28;20048;-68
2023/03/24 01:34:38;;;;;;;4.70;2.95;;;11.10;99.90;;;;;;5038686;28;20045;-70
2023/03/24 01:37:04;;;;;;;5.43;3.15;;;11.10;99.90;;;;;;5040985;28;20488;-69
2023/03/24 01:39:30;;;;;;;6.63;3.10;;;11.10;99.90;;;;;;5047086;28;20043;-70
2023/03/24 01:41:56;;;;;;;5.47;2.88;;;11.10;99.90;;;;;;5045847;28;20459;-69
2023/03/24 01:44:29;;;;;;;4.57;2.60;;;11.10;99.90;;;;;;5040722;28;20037;-69
2023/03/24 01:46:56;;;;;;;4.60;2.75;;;11.10;99.90;;;;;;5026688;28;20102;-69
2023/03/24 01:49:27;;;;;;;4.55;2.50;;;11.10;99.90;;;;;;5035343;28;20047;-69
2023/03/24 01:51:57;;;;;;;5.88;2.65;;;11.20;99.90;;;;;;5035548;28;20065;-70
2023/03/24 01:54:52;;;;;;;4.93;2.70;;;11.10;99.90;;;;;;5068171;28;20037;-69
2023/03/24 01:57:28;;;;;;;5.50;3.42;;;11.20;99.90;;;;;;5046144;28;20048;-70
2023/03/24 01:59:58;;;;;;;6.00;2.75;;;11.20;99.90;;;;;;5071178;28;20455;-70
2023/03/24 02:02:25;;;;;;;6.50;3.10;;;11.20;99.90;;;;;;5051546;28;20048;-69
2023/03/24 02:05:00;;;;;;;4.57;2.90;;;11.20;99.90;;;;;;5035986;28;20045;-69
2023/03/24 02:07:34;;;;;;;6.10;3.13;;;11.20;99.90;;;;;;5074104;28;20040;-69
2023/03/24 02:10:04;;;;;;;6.20;3.10;;;11.20;99.90;;;;;;5077686;28;20086;-69
2023/03/24 02:12:31;;;;;;;5.72;3.10;;;11.20;99.90;;;;;;5040075;28;20041;-70
2023/03/24 02:14:57;;;;;;;5.18;2.67;;;11.20;99.90;;;;;;5041517;28;20045;-70
2023/03/24 02:18:01;;;;;;;5.57;2.97;;;11.20;99.90;;;;;;5046613;28;20048;-69
2023/03/24 02:20:45;;;;;;;5.30;3.10;;;11.20;99.90;;;;;;5032045;28;20110;-70
2023/03/24 02:23:36;;;;;;;5.43;3.10;;;11.20;99.90;;;;;;5044629;28;20056;-69
2023/03/24 02:26:25;;;;;;;5.10;3.05;;;11.20;99.90;;;;;;5050883;28;20037;-69
2023/03/24 02:29:15;;;;;;;5.38;3.00;;;11.30;99.90;;;;;;5044933;28;20128;-69
2023/03/24 02:32:18;;;;;;;5.18;3.20;;;11.30;99.90;;;;;;5049509;28;20061;-70
2023/03/24 02:35:28;;;;;;;6.85;2.97;;;11.30;99.90;;;;;;5051264;28;20388;-70
2023/03/24 02:38:08;;;;;;;6.18;3.17;;;11.30;99.90;;;;;;5049936;28;20507;-69
2023/03/24 02:40:48;;;;;;;4.53;3.20;;;11.30;99.90;;;;;;5042759;28;20041;-70
2023/03/24 02:43:22;;;;;;;5.25;2.92;;;11.30;99.90;;;;;;5048398;28;20041;-69
2023/03/24 02:46:22;;;;;;;4.28;3.10;;;11.30;99.90;;;;;;5047599;28;20052;-70
2023/03/24 02:48:59;;;;;;;4.53;2.60;;;11.30;99.90;;;;;;5046520;28;20045;-69
2023/03/24 02:51:34;;;;;;;4.97;2.95;;;11.30;99.90;;;;;;5053668;28;20033;-69
2023/03/24 02:54:35;;;;;;;4.70;2.72;;;11.30;99.90;;;;;;5026312;28;20057;-70
2023/03/24 02:57:06;;;;;;;5.50;3.17;;;11.30;99.90;;;;;;5083677;28;20106;-70
2023/03/24 02:59:32;;;;;;;6.97;3.53;;;11.30;99.90;;;;;;5049919;28;20068;-69
2023/03/24 03:02:02;;;;;;;6.00;3.50;;;11.40;99.90;;;;;;5045230;28;20451;-69
2023/03/24 03:04:33;;;;;;;3.88;2.97;;;11.40;99.90;;;;;;5050277;28;20491;-69
2023/03/24 03:07:08;;;;;;;4.30;3.65;;;11.40;99.90;;;;;;5033427;28;20053;-69
2023/03/24 03:09:38;;;;;;;6.53;2.80;;;11.40;99.90;;;;;;5049013;28;20095;-70
2023/03/24 03:12:07;;;;;;;3.65;3.08;;;11.40;99.90;;;;;;5042563;28;20102;-69
2023/03/24 03:14:35;;;;;;;4.85;3.72;;;11.40;99.90;;;;;;5049675;28;20124;-71
2023/03/24 03:17:14;;;;;;;3.70;3.00;;;11.40;99.90;;;;;;5049261;28;20053;-70
2023/03/24 03:19:45;;;;;;;5.85;3.08;;;11.40;99.90;;;;;;5024503;28;20047;-69
2023/03/24 03:22:20;;;;;;;5.78;3.00;;;11.40;99.90;;;;;;5048539;28;20112;-70
2023/03/24 03:24:51;;;;;;;8.07;3.20;;;11.40;99.90;;;;;;5042594;28;20399;-70
2023/03/24 03:27:27;;;;;;;4.50;3.17;;;11.40;99.90;;;;;;5043995;28;20040;-70
2023/03/24 03:30:03;;;;;;;6.43;3.65;;;11.40;99.90;;;;;;5032127;28;20120;-70
2023/03/24 03:32:33;;;;;;;7.10;3.80;;;11.40;99.90;;;;;;5040922;28;20085;-69
2023/03/24 03:35:10;;;;;;;6.97;3.60;;;11.40;99.90;;;;;;5033237;28;20056;-70
2023/03/24 03:37:40;;;;;;;4.22;2.28;;;11.30;99.90;;;;;;5042647;28;20045;-69
2023/03/24 03:40:11;;;;;;;5.68;2.47;;;11.20;99.90;;;;;;5043831;28;20041;-69
2023/03/24 03:42:38;;;;;;;3.92;2.03;;;11.20;99.90;;;;;;5041853;28;20094;-70
2023/03/24 03:45:05;;;;;;;3.83;1.30;;;11.10;99.90;;;;;;5073229;28;20071;-70
2023/03/24 03:47:31;;;;;;;3.15;1.40;;;11.00;99.90;;;;;;5035708;28;20061;-69
2023/03/24 03:49:57;;;;;;;3.45;1.15;;;10.90;99.90;;;;;;5033620;28;20385;-69
2023/03/24 03:52:23;;;;;;;3.22;1.10;;;10.80;99.90;;;;;;5039318;28;20045;-70
2023/03/24 03:54:50;;;;;;;4.80;1.92;;;10.70;99.90;;;;;;5048955;28;20391;-69
2023/03/24 03:57:17;;;;;;;5.95;1.50;;;10.70;99.90;;;;;;5044850;28;20057;-70
2023/03/24 03:59:43;;;;;;;6.50;2.45;;;10.70;99.90;;;;;;5037333;28;20087;-69
2023/03/24 04:02:28;;;;;;;6.60;1.73;;;10.60;99.90;;;;;;5050252;28;20475;-69
2023/03/24 04:05:24;;;;;;;4.85;1.38;;;10.60;99.90;;;;;;5049917;28;20037;-69
2023/03/24 04:07:56;;;;;;;7.25;1.85;;;10.50;99.90;;;;;;5048395;28;20045;-69
2023/03/24 04:10:53;;;;;;;5.22;1.40;;;10.50;99.90;;;;;;5050740;28;20048;-69
2023/03/24 04:13:30;;;;;;;8.50;1.38;;;10.40;99.90;;;;;;5044355;28;20055;-69
2023/03/24 04:16:24;;;;;;;5.10;1.13;;;10.30;99.90;;;;;;5040755;28;20551;-70
2023/03/24 04:19:12;;;;;;;8.52;2.13;;;10.30;99.90;;;;;;5032243;28;20156;-69
2023/03/24 04:22:11;;;;;;;8.25;1.48;;;10.30;99.90;;;;;;5029832;28;20056;-69
2023/03/24 04:25:07;;;;;;;6.65;1.52;;;10.20;99.90;;;;;;5047311;28;20136;-70
2023/03/24 04:27:37;;;;;;;7.78;1.52;;;10.20;99.90;;;;;;5045088;28;20041;-69
2023/03/24 04:30:14;;;;;;;8.82;1.58;;;10.10;99.90;;;;;;5024704;28;20693;-69
2023/03/24 04:32:48;;;;;;;7.90;1.92;;;10.10;99.90;;;;;;5068881;28;20054;-69
2023/03/24 04:35:25;;;;;;;8.98;1.75;;;10.10;99.90;;;;;;5058097;28;20032;-69
2023/03/24 04:37:53;;;;;;;9.18;2.13;;;10.10;99.90;;;;;;5045086;28;20043;-70
2023/03/24 04:40:21;;;;;;;8.93;1.80;;;10.00;99.90;;;;;;5068091;28;20386;-69
2023/03/24 04:42:58;;;;;;;6.60;1.80;;;10.00;99.90;;;;;;5062889;28;20127;-69
2023/03/24 04:45:24;;;;;;;9.35;1.75;;;10.10;99.90;;;;;;5049618;28;20051;-70
2023/03/24 04:47:55;;;;;;;10.30;2.10;;;10.10;99.90;;;;;;5073920;28;20045;-69
2023/03/24 04:50:39;;;;;;;8.93;2.28;;;10.00;99.90;;;;;;5041675;28;20474;-69
2023/03/24 04:53:06;;;;;;;10.40;2.08;;;10.00;99.90;;;;;;5041703;28;20500;-69
2023/03/24 04:55:37;;;;;;;7.82;2.30;;;10.00;99.90;;;;;;5071207;28;20136;-69
2023/03/24 04:58:03;;;;;;;7.88;2.25;;;9.90;99.90;;;;;;5031184;28;20041;-68
2023/03/24 05:00:30;;;;;;;9.38;2.30;;;9.90;99.90;;;;;;5046686;28;20043;-69
2023/03/24 05:02:56;;;;;;;11.68;2.15;;;9.90;99.90;;;;;;5039916;28;20049;-69
2023/03/24 05:05:22;;;;;;;9.82;2.28;;;9.80;99.90;;;;;;5049442;28;20029;-70
2023/03/24 05:07:48;;;;;;;13.52;2.58;;;9.80;99.90;;;;;;5047706;28;20079;-70
2023/03/24 05:10:14;;;;;;;8.30;1.77;;;9.70;99.90;;;;;;5039735;28;20055;-69
2023/03/24 05:12:40;;;;;;;10.30;2.17;;;9.60;99.90;;;;;;5039810;28;20041;-69
2023/03/24 05:15:06;;;;;;;11.77;2.28;;;9.50;99.90;;;;;;5037713;28;20967;-69
2023/03/24 05:17:31;;;;;;;6.30;2.22;;;9.50;99.90;;;;;;5039978;28;20481;-70
2023/03/24 05:19:57;;;;;;;10.80;1.80;;;9.40;99.90;;;;;;5058483;28;20116;-70
2023/03/24 05:22:23;;;;;;;7.32;2.00;;;9.40;99.90;;;;;;5030087;28;20456;-69
2023/03/24 05:24:49;;;;;;;10.30;2.20;;;9.40;99.90;;;;;;5045687;28;20411;-69
2023/03/24 05:27:14;;;;;;;9.98;1.70;;;9.30;99.90;;;;;;5039209;28;20045;-69
2023/03/24 05:29:40;;;;;;;6.40;1.58;;;9.30;99.90;;;;;;5041596;28;20036;-70
2023/03/24 05:32:06;;;;;;;8.60;2.00;;;9.30;99.90;;;;;;5041379;28;20067;-69
2023/03/24 05:34:31;;;;;;;10.25;2.13;;;9.20;99.90;;;;;;5039333;28;20447;-70
2023/03/24 05:36:57;;;;;;;6.15;1.67;;;9.20;99.90;;;;;;5035135;28;20037;-69
2023/03/24 05:39:23;;;;;;;8.73;1.95;;;9.20;99.90;;;;;;5037494;28;20029;-70
2023/03/24 05:41:49;;;;;;;8.93;2.20;;;9.10;99.90;;;;;;5019594;28;20128;-69
2023/03/24 05:44:14;;;;;;;5.88;1.80;;;9.10;99.90;;;;;;5036841;28;20462;-70
2023/03/24 05:46:41;;;;;;;11.02;1.90;;;9.10;99.90;;;;;;5056857;28;20044;-69
2023/03/24 05:49:07;;;;;;;11.10;1.80;;;9.10;99.90;;;;;;5035137;28;20041;-70
2023/03/24 05:51:32;;;;;;;9.38;2.05;;;9.10;99.90;;;;;;5038022;28;20551;-69
2023/03/24 05:53:58;;;;;;;9.82;2.03;;;9.10;99.90;;;;;;5048825;28;20395;-69
2023/03/24 05:56:23;;;;;;;8.98;2.03;;;9.10;99.90;;;;;;5046836;28;20454;-69
2023/03/24 05:58:50;;;;;;;8.38;1.73;;;9.10;99.90;;;;;;5080477;28;20559;-70
2023/03/24 06:01:17;;;;;;;9.70;1.50;;;9.10;99.90;;;;;;5048779;28;20045;-69
2023/03/24 06:03:43;;;;;;;11.38;1.83;;;9.10;99.90;;;;;;5047132;28;20539;-69
2023/03/24 06:06:13;;;;;;;8.75;1.90;;;9.10;99.90;;;;;;5032404;28;20144;-71
2023/03/24 06:08:39;;;;;;;9.15;1.80;;;9.10;99.90;;;;;;5044037;28;20454;-74
2023/03/24 06:11:06;;;;;;;9.07;1.67;;;9.20;99.90;;;;;;5048295;28;20041;-71
2023/03/24 06:13:31;;;;;;;9.07;1.90;;;9.20;99.90;;;;;;5045678;28;20071;-71
2023/03/24 06:15:58;;;;;;;8.75;1.60;;;9.20;99.90;;;;;;5040541;28;20065;-72
2023/03/24 06:18:29;;;;;;;9.10;1.80;;;9.30;99.90;;;;;;5036686;28;20042;-72
2023/03/24 06:20:55;;;;;;;7.63;1.73;;;9.30;99.90;;;;;;5075848;28;20404;-71
2023/03/24 06:23:24;;;;;;;8.18;2.10;;;9.40;99.90;;;;;;5048345;28;20037;-71
2023/03/24 06:25:51;;;;;;;10.13;1.70;;;9.40;99.90;;;;;;5037729;28;20127;-70
2023/03/24 06:28:17;;;;;;;12.60;2.40;;;9.40;99.90;;;;;;5043230;28;20069;-71
2023/03/24 06:30:43;;;;;;;16.25;3.00;;;9.50;99.90;;;;;;5041991;28;20061;-72
2023/03/24 06:33:10;;;;;;;9.18;2.00;;;9.50;99.90;;;;;;5074754;28;20073;-71
2023/03/24 06:35:36;;;;;;;10.52;2.10;;;9.60;99.90;;;;;;5046830;28;20037;-72
2023/03/24 06:38:02;;;;;;;11.85;1.75;;;9.60;99.90;;;;;;5031303;28;20561;-71
2023/03/24 06:40:29;;;;;;;9.10;2.35;;;9.70;99.90;;;;;;5051428;28;20036;-70
2023/03/24 06:42:55;;;;;;;10.55;2.38;;;9.70;99.90;;;;;;5052322;28;20045;-72
2023/03/24 06:45:20;;;;;;;12.02;2.00;;;9.80;99.90;;;;;;5052631;28;20037;-71
2023/03/24 06:47:46;;;;;;;9.82;2.15;;;9.80;99.90;;;;;;5050816;28;20136;-72
2023/03/24 06:50:12;;;;;;;10.82;1.92;;;9.80;99.90;;;;;;5050601;28;20056;-71
2023/03/24 06:52:38;;;;;;;8.82;1.90;;;9.80;99.90;;;;;;5049065;28;20053;-72
2023/03/24 06:55:04;;;;;;;12.45;2.30;;;9.80;99.90;;;;;;5033456;28;20071;-72
2023/03/24 06:57:30;;;;;;;15.00;2.63;;;9.80;99.90;;;;;;5031712;28;20499;-71
2023/03/24 06:59:56;;;;;;;14.30;2.15;;;9.90;99.90;;;;;;5041352;28;20052;-71
2023/03/24 07:02:22;;;;;;;13.43;3.05;;;9.90;99.90;;;;;;5051349;28;20497;-70
2023/03/24 07:04:49;;;;;;;12.35;2.00;;;9.90;99.90;;;;;;5051374;28;20053;-70
2023/03/24 07:07:16;;;;;;;18.17;2.65;;;9.90;99.90;;;;;;5040784;28;20037;-69
2023/03/24 07:09:42;;;;;;;14.05;3.10;;;9.90;99.90;;;;;;5047193;28;20033;-71
2023/03/24 07:12:08;;;;;;;15.18;2.13;;;9.90;99.90;;;;;;5049952;28;20064;-71
2023/03/24 07:14:33;;;;;;;12.02;2.08;;;9.90;99.90;;;;;;5049783;28;20554;-72
2023/03/24 07:17:00;;;;;;;12.05;1.95;;;10.00;99.90;;;;;;5050917;28;20128;-69
2023/03/24 07:19:26;;;;;;;13.82;2.92;;;10.00;99.90;;;;;;5057340;28;20405;-71
2023/03/24 07:21:52;;;;;;;16.65;2.92;;;10.00;99.90;;;;;;5047321;28;20041;-71
2023/03/24 07:24:18;;;;;;;13.13;2.95;;;10.10;99.90;;;;;;5046372;28;20404;-72
2023/03/24 07:26:44;;;;;;;16.05;2.95;;;10.10;99.90;;;;;;5051823;28;20056;-71
2023/03/24 07:29:10;;;;;;;21.73;3.30;;;10.10;99.90;;;;;;5034219;28;20044;-71
2023/03/24 07:31:37;;;;;;;18.73;3.63;;;10.10;99.90;;;;;;5049307;28;20053;-71
2023/03/24 07:34:06;;;;;;;22.35;3.20;;;10.10;99.90;;;;;;5050352;28;20095;-71
2023/03/24 07:36:32;;;;;;;18.33;2.97;;;10.10;99.90;;;;;;5033782;28;20052;-69
2023/03/24 07:38:58;;;;;;;17.88;2.80;;;10.10;99.90;;;;;;5050744;28;20044;-71
2023/03/24 07:41:25;;;;;;;20.48;3.00;;;10.10;99.90;;;;;;5044666;28;20033;-71
2023/03/24 07:43:51;;;;;;;19.33;3.33;;;10.10;99.90;;;;;;5049974;28;20045;-70
2023/03/24 07:46:17;;;;;;;14.73;2.38;;;10.10;99.90;;;;;;5030777;28;20037;-70
2023/03/24 07:48:42;;;;;;;25.63;4.53;;;10.20;99.90;;;;;;5078818;28;20094;-71
2023/03/24 07:51:08;;;;;;;17.63;3.53;;;10.30;99.90;;;;;;5049158;28;20047;-71
2023/03/24 07:53:33;;;;;;;23.90;3.38;;;10.50;99.90;;;;;;5033686;28;20124;-71
2023/03/24 07:56:00;;;;;;;22.30;3.60;;;10.60;99.90;;;;;;5034100;28;20060;-71
2023/03/24 07:58:25;;;;;;;21.35;3.20;;;10.60;99.90;;;;;;5049766;28;20040;-70
2023/03/24 08:00:51;;;;;;;19.55;3.17;;;10.60;99.90;;;;;;5049991;28;20056;-72
2023/03/24 08:03:16;;;;;;;22.30;4.40;;;10.60;99.90;;;;;;5050254;28;20048;-72
2023/03/24 08:05:43;;;;;;;16.92;2.97;;;10.60;99.90;;;;;;5032400;28;20055;-70
2023/03/24 08:08:08;;;;;;;18.27;3.55;;;10.70;99.90;;;;;;5033712;28;20056;-70
2023/03/24 08:10:35;;;;;;;22.02;3.95;;;10.60;99.90;;;;;;5049668;28;20768;-71
2023/03/24 08:13:01;;;;;;;16.13;2.83;;;10.70;99.90;;;;;;5049397;28;20487;-70
2023/03/24 08:15:27;;;;;;;20.33;3.55;;;10.70;99.90;;;;;;5049154;28;20043;-71
2023/03/24 08:17:55;;;;;;;14.48;2.67;;;10.70;99.90;;;;;;5049147;28;20053;-70
2023/03/24 08:20:23;;;;;;;17.27;2.72;;;10.70;99.90;;;;;;5032451;28;20044;-70
2023/03/24 08:22:49;;;;;;;16.80;3.00;;;10.70;99.90;;;;;;5049505;28;20045;-71
2023/03/24 08:25:17;;;;;;;18.27;3.47;;;10.90;99.90;;;;;;5049549;28;20036;-71
2023/03/24 08:27:43;;;;;;;18.60;3.33;;;11.00;99.90;;;;;;5049561;28;20051;-71
2023/03/24 08:30:13;;;;;;;16.65;2.90;;;11.00;99.90;;;;;;5032861;28;20391;-72
2023/03/24 08:32:44;;;;;;;15.85;2.90;;;11.00;99.90;;;;;;5048533;28;20064;-71
2023/03/24 08:35:13;;;;;;;18.88;2.45;;;11.00;99.90;;;;;;5049476;28;20053;-71
2023/03/24 08:37:42;;;;;;;13.43;2.38;;;11.30;99.90;;;;;;5049353;28;20041;-72
2023/03/24 08:40:13;;;;;;;16.70;2.80;;;11.40;99.90;;;;;;5049399;28;20033;-71
2023/03/24 08:42:40;;;;;;;19.75;3.33;;;11.50;99.90;;;;;;5049263;28;20075;-71
2023/03/24 08:45:06;;;;;;;16.48;3.83;;;11.60;99.90;;;;;;5032807;28;20037;-71
2023/03/24 08:47:31;;;;;;;13.95;2.85;;;11.60;99.90;;;;;;5032825;28;20514;-70
2023/03/24 08:49:57;;;;;;;17.17;3.15;;;11.60;99.90;;;;;;5032714;28;20049;-70
2023/03/24 08:52:24;;;;;;;20.75;2.90;;;11.70;99.90;;;;;;5032212;28;20053;-70
2023/03/24 08:54:49;;;;;;;21.83;3.75;;;11.70;99.90;;;;;;5032606;28;20123;-69
2023/03/24 08:57:16;;;;;;;19.50;3.58;;;11.80;99.90;;;;;;5049083;28;20486;-71
2023/03/24 08:59:42;;;;;;;18.50;3.45;;;11.80;99.90;;;;;;5049323;28;20124;-71
2023/03/24 09:02:12;;;;;;;16.92;3.42;;;11.80;99.90;;;;;;5031935;28;20047;-71
2023/03/24 09:04:38;;;;;;;16.13;3.65;;;11.80;99.90;;;;;;5032464;28;20411;-71
2023/03/24 09:07:04;;;;;;;18.40;3.95;;;11.80;99.90;;;;;;5048670;28;20033;-70
2023/03/24 09:09:31;;;;;;;19.00;3.03;;;11.70;99.90;;;;;;5048929;28;20068;-72
2023/03/24 09:11:57;;;;;;;15.80;3.22;;;11.50;99.90;;;;;;5032361;28;20029;-70
2023/03/24 09:14:23;;;;;;;14.45;3.28;;;11.20;99.90;;;;;;5048595;28;20102;-71
2023/03/24 09:16:49;;;;;;;13.07;3.60;;;11.10;99.90;;;;;;5048776;28;20052;-70
2023/03/24 09:19:16;;;;;;;16.45;2.55;;;10.90;99.90;;;;;;5048356;28;20074;-71
2023/03/24 09:21:44;;;;;;;18.80;3.15;;;10.80;99.90;;;;;;5048695;28;20049;-72
2023/03/24 09:24:11;;;;;;;13.23;3.33;;;10.70;99.90;;;;;;5031996;28;20041;-71
2023/03/24 09:26:36;;;;;;;15.10;3.03;;;10.60;99.90;;;;;;5048781;28;20041;-71
2023/03/24 09:29:02;;;;;;;16.60;2.75;;;10.80;99.90;;;;;;5048551;28;20483;-71
2023/03/24 09:31:28;;;;;;;16.73;3.53;;;11.00;99.90;;;;;;5048104;28;20056;-71
2023/03/24 09:33:54;;;;;;;13.65;2.70;;;11.40;99.90;;;;;;5048942;28;20049;-72
2023/03/24 09:36:19;;;;;;;15.98;2.90;;;11.60;99.90;;;;;;5048664;28;20037;-73
2023/03/24 09:38:45;;;;;;;18.02;2.60;;;11.70;99.90;;;;;;5048563;28;20140;-72
2023/03/24 09:41:18;;;;;;;12.00;2.33;;;11.90;99.90;;;;;;5048096;28;20387;-71
2023/03/24 09:43:58;;;;;;;;;;;12.10;99.90;;;;;;5049146;28;20116;-72
2023/03/24 09:46:45;;;;;;;15.93;2.38;;;12.20;99.90;;;;;;5048570;28;19943;-71
2023/03/24 09:49:15;;;;;;;17.10;2.90;;;12.40;99.90;;;;;;5048263;28;20183;-69
2023/03/24 09:51:44;;;;;;;18.02;2.88;;;12.50;99.90;;;;;;5031383;28;20040;-71
2023/03/24 09:54:41;;;;;;;15.40;2.55;;;12.60;99.90;;;;;;5048453;28;20044;-71
2023/03/24 09:57:35;;;;;;;12.40;2.50;;;12.90;99.90;;;;;;5048380;28;20036;-72
2023/03/24 10:00:22;;;;;;;13.80;2.83;;;13.00;99.90;;;;;;5047960;28;20033;-71
2023/03/24 10:02:50;;;;;;;15.45;3.60;;;13.10;99.90;;;;;;5048114;28;20049;-71
2023/03/24 10:05:19;;;;;;;13.13;2.60;;;13.00;99.90;;;;;;5064921;28;20060;-71
2023/03/24 10:07:55;;;;;;;14.35;3.00;;;13.20;99.90;;;;;;5048038;28;20132;-71
2023/03/24 10:10:51;;;;;;;13.13;2.88;;;13.20;99.90;;;;;;5048574;28;20052;-70
2023/03/24 10:13:50;;;;;;;10.85;2.60;;;13.40;99.90;;;;;;5031200;28;20048;-70
2023/03/24 10:16:18;;;;;;;11.15;2.20;;;13.50;99.90;;;;;;5051126;28;20056;-71
2023/03/24 10:19:08;;;;;;;10.00;2.13;;;13.60;99.90;;;;;;5051825;28;20041;-71
2023/03/24 10:21:39;;;;;;;9.95;2.33;;;13.60;99.90;;;;;;5068460;28;20060;-70
2023/03/24 10:24:07;;;;;;;13.95;2.60;;;13.70;99.90;;;;;;5051893;28;20125;-72
2023/03/24 10:27:14;;;;;;;11.60;2.20;;;13.50;99.90;;;;;;5051743;28;20064;-71
2023/03/24 10:29:44;;;;;;;11.18;2.50;;;13.70;99.90;;;;;;5033967;28;20045;-72
2023/03/24 10:32:19;;;;;;;15.50;2.72;;;13.70;99.90;;;;;;5017308;28;20049;-71
2023/03/24 10:34:49;;;;;;;15.07;2.53;;;13.40;99.90;;;;;;5034093;28;20053;-69
2023/03/24 10:37:16;;;;;;;13.82;3.00;;;12.90;99.90;;;;;;5066954;28;20041;-71
2023/03/24 10:39:42;;;;;;;12.95;3.08;;;12.60;99.90;;;;;;5033850;28;20075;-71
2023/03/24 10:42:18;;;;;;;11.55;2.30;;;12.80;99.90;;;;;;5066716;28;20044;-71
2023/03/24 10:44:47;;;;;;;12.57;2.20;;;12.90;99.90;;;;;;5067456;28;20044;-72
2023/03/24 10:47:14;;;;;;;13.38;2.63;;;13.00;99.90;;;;;;5032884;28;20052;-71
2023/03/24 10:49:52;;;;;;;12.35;2.42;;;13.00;99.90;;;;;;5036305;28;20372;-71
2023/03/24 10:52:18;;;;;;;12.48;2.17;;;13.20;99.90;;;;;;5066996;28;20443;-71
2023/03/24 10:55:03;;;;;;;12.35;2.45;;;13.60;99.90;;;;;;5067019;28;20033;-71
2023/03/24 10:57:29;;;;;;;12.15;2.67;;;14.00;99.90;;;;;;5033427;28;20060;-71
2023/03/24 11:00:00;;;;;;;11.50;2.83;;;14.20;99.90;;;;;;5068864;28;20045;-72
2023/03/24 11:02:27;;;;;;;11.48;3.00;;;14.40;99.90;;;;;;5047349;28;20045;-72
2023/03/24 11:05:01;;;;;;;12.85;2.40;;;14.40;99.90;;;;;;5017025;28;20538;-72
2023/03/24 11:07:41;;;;;;;13.85;2.45;;;14.50;99.90;;;;;;5034936;28;20072;-70
2023/03/24 11:10:10;;;;;;;13.23;2.38;;;14.40;99.90;;;;;;5050899;28;20037;-71
2023/03/24 11:12:38;;;;;;;11.55;2.47;;;14.60;99.90;;;;;;5050587;28;20052;-71
2023/03/24 11:15:21;;;;;;;12.27;2.40;;;14.20;99.90;;;;;;5052279;28;20439;-73
2023/03/24 11:17:57;;;;;;;;;;;14.10;99.90;;;;;;5049231;28;20041;-72
2023/03/24 11:20:32;;;;;;;9.80;2.20;;;13.90;99.90;;;;;;5050502;28;20281;-71
2023/03/24 11:23:24;;;;;;;10.82;2.30;;;14.00;99.90;;;;;;5033845;28;20067;-71
2023/03/24 11:26:03;;;;;;;11.90;2.90;;;14.10;99.90;;;;;;5050096;28;20048;-72
2023/03/24 11:28:34;;;;;;;12.15;2.90;;;14.60;99.90;;;;;;5050271;28;20361;-70
2023/03/24 11:31:06;;;;;;;11.30;2.63;;;14.90;99.90;;;;;;5049671;28;20056;-72
2023/03/24 11:33:40;;;;;;;12.60;3.58;;;15.10;99.90;;;;;;5050410;28;20415;-71
2023/03/24 11:36:29;;;;;;;12.70;2.72;;;15.00;99.90;;;;;;5063751;28;20056;-71
2023/03/24 11:39:20;;;;;;;14.02;2.50;;;14.80;99.90;;;;;;5066702;28;20057;-71
2023/03/24 11:42:02;;;;;;;12.47;2.30;;;14.90;99.90;;;;;;5049903;28;20037;-71
2023/03/24 11:44:31;;;;;;;13.65;2.03;;;14.90;99.90;;;;;;5050363;28;20053;-71
2023/03/24 11:47:07;;;;;;;11.60;1.92;;;14.70;99.90;;;;;;5049299;28;20029;-71
2023/03/24 11:49:38;;;;;;;11.18;2.22;;;14.30;99.90;;;;;;5050029;28;20052;-72
2023/03/24 11:52:08;;;;;;;13.93;2.30;;;14.10;99.90;;;;;;5077020;28;20048;-71
2023/03/24 11:54:35;;;;;;;13.38;2.40;;;14.00;99.90;;;;;;5041077;28;20047;-71
2023/03/24 11:57:10;;;;;;;12.95;2.25;;;13.70;99.90;;;;;;5047042;28;20489;-71
2023/03/24 11:59:44;;;;;;;14.98;3.00;;;13.40;99.90;;;;;;5049448;28;20120;-71
2023/03/24 12:02:13;;;;;;;9.93;1.88;;;13.10;99.90;;;;;;5049769;28;20877;-71
2023/03/24 12:05:12;;;;;;;9.05;1.73;;;13.00;99.90;;;;;;5047871;28;20515;-71
2023/03/24 12:07:57;;;;;;;10.27;1.83;;;13.40;99.90;;;;;;5066958;28;20044;-71
2023/03/24 12:10:47;;;;;;;11.57;2.53;;;13.80;99.90;;;;;;5031866;28;20033;-72
2023/03/24 12:13:18;;;;;;;12.15;2.35;;;14.20;99.90;;;;;;5049928;28;20037;-71
2023/03/24 12:16:11;;;;;;;9.95;1.92;;;14.50;99.90;;;;;;5032930;28;20056;-71
2023/03/24 12:19:12;;;;;;;11.48;1.83;;;14.20;99.90;;;;;;5047215;28;20048;-71
2023/03/24 12:21:55;;;;;;;10.80;2.10;;;13.60;99.90;;;;;;5029840;28;20135;-71
2023/03/24 12:24:30;;;;;;;10.40;2.13;;;13.60;99.90;;;;;;5063918;28;20040;-71
2023/03/24 12:26:58;;;;;;;11.40;2.28;;;13.80;99.90;;;;;;5045458;28;20044;-72
2023/03/24 12:30:17;;;;;;;11.73;2.40;;;13.90;99.90;;;;;;5043065;28;20045;-71
2023/03/24 12:33:14;;;;;;;7.07;1.83;;;14.10;99.90;;;;;;5024461;28;20060;-72
2023/03/24 12:35:49;;;;;;;14.38;2.17;;;14.30;99.90;;;;;;4982799;28;20049;-71
2023/03/24 12:38:39;;;;;;;14.02;2.75;;;14.30;99.90;;;;;;4988749;28;20072;-71
2023/03/24 12:41:38;;;;;;;11.95;2.13;;;14.20;99.90;;;;;;4990981;28;20438;-71
2023/03/24 12:44:38;;;;;;;10.05;2.08;;;14.30;99.90;;;;;;5007601;28;20034;-71
2023/03/24 12:47:22;;;;;;;15.57;2.72;;;14.40;99.90;;;;;;4986904;28;20046;-71
2023/03/24 12:50:18;;;;;;;11.18;3.00;;;14.20;99.90;;;;;;4992499;28;20041;-70
2023/03/24 12:53:06;;;;;;;13.25;3.13;;;14.00;99.90;;;;;;4992152;28;20049;-71
2023/03/24 12:55:52;;;;;;;13.85;2.17;;;13.80;99.90;;;;;;4991815;28;20523;-71
2023/03/24 12:58:33;;;;;;;12.38;2.15;;;13.70;99.90;;;;;;4975665;28;20050;-70
2023/03/24 13:01:19;;;;;;;13.55;2.55;;;13.70;99.90;;;;;;4953711;28;20054;-71
2023/03/24 13:03:50;;;;;;;15.27;2.78;;;13.90;99.90;;;;;;4953560;28;20521;-70
2023/03/24 13:06:21;;;;;;;11.30;2.83;;;14.00;99.90;;;;;;4950385;28;20058;-72
2023/03/24 13:09:25;;;;;;;15.18;3.03;;;14.20;99.90;;;;;;4953444;28;20054;-70